Columbus, Ohio
Traffic Map
Current Weather Conditions
Columbus, Ohio
Broken Clouds
Broken Clouds

Feels Like: 5°
Wind Chill: Ceiling: 20000
Heat Index: Visibility: 9mi
Dew Point: -1° Wind: 0mph
Humidity: 76% Direction: ° ()
Pressure: 30.47in Gusts: 0mph
Raw Report DataKCMH 141351Z 00000KT 9SM BKN200 M15/M18 A3047 RMK AO2 SLP338 T11501183
Traffic Incident Summary
Active as of:
Severity:
Category:
InformationThere was an issue retrieving the traffic information for this location. Please try a different location or try again shortly.
Advertisements
Track Severe Weather on mobile